createdAt,value
2023-06-04T00:00:39.221Z,73.00
2023-06-04T00:02:41.160Z,73.30
2023-06-04T00:04:43.084Z,74.10
2023-06-04T00:06:45.146Z,74.60
2023-06-04T00:08:46.981Z,74.40
2023-06-04T00:10:48.837Z,75.80
2023-06-04T00:12:50.638Z,77.70
2023-06-04T00:16:54.744Z,80.10
2023-06-04T00:18:56.625Z,79.40
2023-06-04T00:20:58.482Z,81.50
2023-06-04T00:27:04.947Z,84.20
2023-06-04T00:29:06.818Z,78.80
2023-06-04T00:31:09.047Z,78.60
2023-06-04T00:33:11.189Z,77.20
2023-06-04T00:35:13.134Z,76.60
2023-06-04T00:37:15.036Z,76.60
2023-06-04T00:39:16.892Z,75.90
2023-06-04T00:41:18.698Z,75.30
2023-06-04T00:43:20.632Z,75.50
2023-06-04T00:45:22.494Z,74.70
2023-06-04T00:47:24.525Z,74.10
2023-06-04T00:49:26.378Z,76.80
2023-06-04T00:51:31.292Z,80.20
2023-06-04T00:53:33.251Z,79.10
2023-06-04T00:55:35.141Z,78.90
2023-06-04T00:57:38.721Z,75.60
2023-06-04T00:59:41.053Z,73.90
2023-06-04T01:02:03.134Z,73.50
2023-06-04T01:04:05.898Z,73.30
2023-06-04T01:06:13.817Z,74.20
2023-06-04T01:08:15.721Z,74.90
2023-06-04T01:10:17.860Z,74.00
2023-06-04T01:12:19.717Z,73.90
2023-06-04T01:14:21.570Z,73.80
2023-06-04T01:16:23.636Z,73.60
2023-06-04T01:18:28.326Z,73.50
2023-06-04T01:20:30.341Z,73.80
2023-06-04T01:22:50.748Z,74.30
2023-06-04T01:24:54.473Z,74.70
2023-06-04T01:26:56.792Z,75.00
2023-06-04T01:28:59.563Z,75.90
2023-06-04T01:31:01.727Z,76.30
2023-06-04T01:33:04.268Z,76.50
2023-06-04T01:35:12.111Z,75.80
2023-06-04T01:37:14.123Z,75.80
2023-06-04T01:39:16.310Z,75.60
2023-06-04T01:41:18.590Z,75.80
2023-06-04T01:43:20.425Z,75.30
2023-06-04T01:45:25.985Z,75.90
2023-06-04T01:47:27.782Z,76.80
2023-06-04T01:49:29.751Z,76.00
2023-06-04T01:51:31.569Z,76.00
2023-06-04T01:53:34.616Z,76.50
2023-06-04T01:55:36.429Z,76.90
2023-06-04T01:57:38.665Z,77.70
2023-06-04T01:59:40.704Z,77.80
2023-06-04T02:01:42.903Z,77.80
2023-06-04T02:03:45.526Z,78.20
2023-06-04T02:05:47.481Z,78.50
2023-06-04T02:07:49.331Z,79.10
2023-06-04T02:09:51.226Z,80.40
2023-06-04T02:11:53.067Z,82.20
2023-06-04T02:13:54.941Z,80.30
2023-06-04T02:15:56.759Z,77.50
2023-06-04T02:17:59.979Z,79.30
2023-06-04T02:20:02.080Z,79.00
2023-06-04T02:22:04.058Z,79.30
2023-06-04T02:24:06.056Z,79.20
2023-06-04T02:26:08.104Z,78.90
2023-06-04T02:28:09.886Z,78.00
2023-06-04T02:30:11.831Z,77.50
2023-06-04T02:38:20.476Z,81.20
2023-06-04T02:40:22.326Z,82.50
2023-06-04T02:42:24.251Z,78.50
2023-06-04T02:44:27.665Z,79.00
2023-06-04T02:52:36.470Z,81.50
2023-06-04T02:54:38.625Z,83.80
2023-06-04T02:56:40.464Z,84.60
2023-06-04T03:13:00.918Z,83.80
2023-06-04T03:15:03.269Z,77.40
2023-06-04T03:17:05.290Z,76.90
2023-06-04T03:19:07.161Z,77.00
2023-06-04T03:21:09.509Z,77.30
2023-06-04T03:23:11.568Z,78.40
2023-06-04T03:25:13.450Z,78.90
2023-06-04T03:27:15.354Z,79.30
2023-06-04T03:29:17.536Z,78.20
2023-06-04T03:31:19.541Z,79.20
2023-06-04T03:33:21.539Z,76.70
2023-06-04T03:35:23.502Z,75.60
2023-06-04T03:37:25.322Z,75.20
2023-06-04T03:39:27.349Z,74.70
2023-06-04T03:41:30.477Z,74.90
2023-06-04T03:43:33.242Z,74.50
2023-06-04T03:45:38.590Z,74.60
2023-06-04T03:47:40.879Z,74.60
2023-06-04T03:49:43.992Z,74.30
2023-06-04T03:51:46.049Z,74.70
2023-06-04T03:53:48.167Z,74.90
2023-06-04T03:55:50.146Z,74.60
2023-06-04T03:57:52.750Z,75.40
2023-06-04T03:59:55.718Z,76.00
2023-06-04T04:01:57.648Z,76.40
2023-06-04T04:03:59.914Z,76.10
2023-06-04T04:06:01.898Z,76.40
2023-06-04T04:08:04.430Z,76.20
2023-06-04T04:10:09.019Z,75.80
2023-06-04T04:12:10.923Z,74.80
2023-06-04T04:14:13.412Z,74.10
2023-06-04T04:16:15.462Z,74.10
2023-06-04T04:18:17.322Z,74.40
2023-06-04T04:20:19.302Z,74.60
2023-06-04T04:22:29.929Z,75.30
2023-06-04T04:24:31.874Z,75.40
2023-06-04T04:26:38.026Z,76.30
2023-06-04T04:28:40.294Z,77.30
2023-06-04T04:30:42.627Z,77.40
2023-06-04T04:32:45.707Z,77.70
2023-06-04T04:34:51.610Z,77.80
2023-06-04T04:36:55.230Z,78.10
2023-06-04T04:38:59.181Z,78.40
2023-06-04T04:41:06.820Z,78.40
2023-06-04T04:43:08.832Z,78.60
2023-06-04T04:45:11.549Z,78.90
2023-06-04T04:47:13.558Z,79.00
2023-06-04T04:49:15.506Z,79.20
2023-06-04T04:51:17.432Z,79.10
2023-06-04T04:53:19.333Z,79.20
2023-06-04T04:55:21.157Z,78.80
2023-06-04T04:57:25.122Z,78.60
2023-06-04T04:59:28.675Z,78.40
2023-06-04T05:01:32.849Z,78.40
2023-06-04T05:03:35.925Z,78.10
2023-06-04T05:05:37.898Z,78.20
2023-06-04T05:07:40.873Z,78.20
2023-06-04T05:09:42.803Z,78.00
2023-06-04T05:11:45.425Z,78.40
2023-06-04T05:13:47.755Z,78.40
2023-06-04T05:15:49.619Z,78.60
2023-06-04T05:17:54.789Z,79.30
2023-06-04T05:19:57.607Z,79.60
2023-06-04T05:22:00.050Z,79.80
2023-06-04T05:24:01.987Z,80.20
2023-06-04T05:26:07.926Z,80.40
2023-06-04T05:28:10.170Z,80.50
2023-06-04T05:30:12.501Z,80.70
2023-06-04T05:32:14.475Z,81.00
2023-06-04T05:34:16.383Z,81.20
2023-06-04T05:36:18.966Z,81.40
2023-06-04T05:38:27.971Z,81.60
2023-06-04T05:40:32.887Z,81.80
2023-06-04T05:42:34.779Z,82.00
2023-06-04T05:44:36.923Z,82.20
2023-06-04T05:46:38.997Z,82.10
2023-06-04T05:48:40.902Z,82.60
2023-06-04T05:50:43.189Z,83.00
2023-06-04T05:52:45.097Z,83.00
2023-06-04T05:54:48.317Z,83.80
2023-06-04T05:56:50.177Z,84.20
2023-06-04T05:58:53.150Z,85.00
2023-06-04T06:00:56.051Z,85.80
2023-06-04T06:02:58.117Z,85.80
2023-06-04T06:05:13.887Z,86.20
2023-06-04T06:07:15.861Z,86.30
2023-06-04T06:09:17.759Z,86.50
2023-06-04T06:11:19.850Z,86.00
2023-06-04T06:13:21.718Z,85.00
2023-06-04T06:15:23.834Z,84.80
2023-06-04T06:17:27.127Z,84.90
2023-06-04T06:19:29.119Z,84.60
2023-06-04T06:21:30.933Z,84.50
2023-06-04T06:23:32.839Z,84.90
2023-06-04T06:25:35.319Z,85.00
2023-06-04T06:27:43.013Z,85.20
2023-06-04T06:29:46.624Z,85.20
2023-06-04T06:31:48.744Z,85.20
2023-06-04T06:33:50.610Z,85.50
2023-06-04T06:35:52.481Z,85.60
2023-06-04T06:37:54.306Z,85.80
2023-06-04T06:39:56.186Z,86.20
2023-06-04T06:41:57.980Z,86.50
2023-06-04T06:44:03.454Z,87.20
2023-06-04T07:02:23.447Z,88.20
2023-06-04T07:06:27.580Z,87.70
2023-06-04T07:08:29.584Z,88.10
2023-06-04T07:10:31.425Z,88.10
2023-06-04T07:16:37.743Z,88.40
2023-06-04T07:18:39.586Z,88.40
2023-06-04T07:45:08.369Z,88.20
2023-06-04T07:47:10.166Z,87.90
2023-06-04T07:49:12.054Z,87.50
2023-06-04T07:51:14.420Z,87.00
2023-06-04T07:53:16.232Z,87.70
2023-06-04T07:57:20.277Z,87.60
2023-06-04T09:45:27.686Z,89.80
2023-06-04T09:47:39.324Z,86.50
2023-06-04T09:49:41.826Z,86.40
2023-06-04T09:51:48.267Z,85.50
2023-06-04T09:53:56.668Z,85.30
2023-06-04T09:56:02.118Z,85.80
2023-06-04T09:58:05.149Z,85.00
2023-06-04T10:00:07.459Z,85.90
2023-06-04T10:02:14.173Z,86.40
2023-06-04T10:04:16.583Z,86.60
2023-06-04T10:06:19.577Z,86.70
2023-06-04T10:12:30.933Z,87.20
2023-06-04T10:18:37.696Z,87.60
2023-06-04T10:20:39.975Z,85.10
2023-06-04T10:22:41.879Z,85.80
2023-06-04T10:24:44.652Z,85.40
2023-06-04T10:43:08.368Z,90.20
2023-06-04T10:45:11.013Z,87.60
2023-06-04T10:47:19.543Z,86.00
2023-06-04T10:49:31.032Z,85.40
2023-06-04T10:51:33.776Z,83.30
2023-06-04T10:53:38.766Z,82.90
2023-06-04T10:55:47.712Z,83.80
2023-06-04T10:57:56.231Z,84.80
2023-06-04T10:59:58.567Z,85.60
2023-06-04T11:02:10.007Z,85.80
2023-06-04T11:04:24.982Z,86.90
2023-06-04T11:06:26.917Z,87.10
2023-06-04T11:08:29.899Z,85.50
2023-06-04T11:10:32.925Z,85.50
2023-06-04T11:12:42.320Z,83.30
2023-06-04T11:14:59.284Z,82.20
2023-06-04T11:17:13.954Z,85.50
2023-06-04T11:19:15.796Z,85.40
2023-06-04T11:25:22.142Z,90.30
2023-06-04T11:27:35.754Z,80.40
2023-06-04T11:29:38.390Z,78.80
2023-06-04T11:31:47.244Z,79.50
2023-06-04T11:33:49.492Z,80.10
2023-06-04T11:35:51.375Z,81.00
2023-06-04T11:37:56.565Z,80.60
2023-06-04T11:39:58.437Z,80.10
2023-06-04T11:42:00.295Z,80.20
2023-06-04T11:44:03.507Z,79.40
2023-06-04T11:46:10.919Z,78.40
2023-06-04T11:48:13.903Z,78.70
2023-06-04T11:50:15.845Z,79.70
2023-06-04T11:52:19.522Z,80.70
2023-06-04T11:54:21.979Z,80.90
2023-06-04T11:56:25.367Z,81.80
2023-06-04T11:58:27.263Z,80.70
2023-06-04T12:00:29.289Z,81.30
2023-06-04T12:02:31.322Z,84.10
2023-06-04T12:04:33.221Z,83.60
2023-06-04T12:10:40.637Z,89.50
2023-06-04T12:12:42.569Z,86.00
2023-06-04T12:14:44.455Z,87.20
2023-06-04T12:16:56.038Z,84.80
2023-06-04T12:21:00.166Z,91.20
2023-06-04T12:23:02.047Z,85.90
2023-06-04T12:25:04.212Z,86.70
2023-06-04T12:27:06.954Z,86.90
2023-06-04T12:29:13.206Z,84.90
2023-06-04T12:31:18.266Z,85.40
2023-06-04T12:33:20.151Z,86.90
2023-06-04T12:35:21.976Z,87.60
2023-06-04T12:37:24.284Z,87.70
2023-06-04T12:39:26.098Z,87.60
2023-06-04T12:41:28.419Z,88.50
